Time;durP1;ratioP1;P1;durP2;ratioP2;P2;SDS_P1;SDS_P2;PMS_P1;PMS_P2;Temp;Humidity;BMP_temperature;BMP_pressure;BME280_temperature;BME280_humidity;BME280_pressure;Samples;Min_cycle;Max_cycle;Signal;HPM_P1;HPM_P2
2022/04/08 00:00:28;;;;;;;0.98;0.43;;;;;;;23.86;59.93;96882.91;5055571;28;20021;-63
2022/04/08 00:02:53;;;;;;;0.95;0.45;;;;;;;23.88;60.04;96881.47;5056664;28;20025;-63
2022/04/08 00:05:19;;;;;;;3.80;0.35;;;;;;;23.91;59.90;96885.53;5055139;28;20024;-63
2022/04/08 00:07:44;;;;;;;0.90;0.30;;;;;;;23.92;59.72;96878.94;5058018;28;20045;-62
2022/04/08 00:10:10;;;;;;;0.77;0.20;;;;;;;23.92;59.16;96877.00;5058104;28;20106;-63
2022/04/08 00:12:35;;;;;;;1.05;0.50;;;;;;;23.96;59.07;96877.22;5054914;28;20495;-63
2022/04/08 00:15:00;;;;;;;1.85;0.57;;;;;;;24.03;59.21;96876.84;5055090;28;20056;-63
2022/04/08 00:17:26;;;;;;;0.52;0.28;;;;;;;24.02;59.06;96876.03;5054848;28;20032;-63
2022/04/08 00:19:51;;;;;;;1.05;0.40;;;;;;;24.07;58.87;96881.41;5055010;28;20456;-62
2022/04/08 00:22:18;;;;;;;1.88;0.38;;;;;;;24.10;59.26;96878.03;5054892;28;20021;-63
2022/04/08 00:24:44;;;;;;;0.90;0.22;;;;;;;24.08;59.22;96880.28;5054816;28;20028;-63
2022/04/08 00:27:09;;;;;;;0.95;0.20;;;;;;;24.10;58.46;96874.50;5054739;28;20388;-64
2022/04/08 00:29:35;;;;;;;0.52;0.25;;;;;;;24.11;58.85;96882.41;5055755;28;20036;-63
2022/04/08 00:32:00;;;;;;;1.13;0.30;;;;;;;24.17;58.62;96883.13;5054865;28;20527;-62
2022/04/08 00:34:26;;;;;;;1.27;0.55;;;;;;;24.18;58.68;96882.81;5054469;28;20028;-62
2022/04/08 00:36:53;;;;;;;1.40;0.20;;;;;;;24.19;58.83;96876.25;5053365;28;20055;-62
2022/04/08 00:39:18;;;;;;;1.15;0.68;;;;;;;24.20;57.95;96888.84;5054493;28;20033;-62
2022/04/08 00:41:44;;;;;;;1.92;0.60;;;;;;;24.22;58.51;96886.59;5054589;28;20452;-62
2022/04/08 00:44:10;;;;;;;3.13;0.40;;;;;;;24.22;58.62;96875.63;5054499;28;20024;-62
2022/04/08 00:46:37;;;;;;;0.80;0.15;;;;;;;24.26;58.53;96879.38;5054237;28;20025;-62
2022/04/08 00:49:03;;;;;;;1.50;0.22;;;;;;;24.27;57.84;96872.75;5054406;28;20032;-62
2022/04/08 00:51:30;;;;;;;0.82;0.20;;;;;;;24.27;57.65;96869.22;5056429;28;20103;-61
2022/04/08 00:53:56;;;;;;;1.30;0.50;;;;;;;24.27;57.76;96872.75;5054395;28;20055;-62
2022/04/08 00:56:21;;;;;;;1.90;0.52;;;;;;;24.27;58.03;96878.25;5054056;28;20032;-62
2022/04/08 00:58:47;;;;;;;1.02;0.30;;;;;;;24.28;57.77;96868.91;5054228;28;20025;-62
2022/04/08 01:01:12;;;;;;;2.28;0.70;;;;;;;24.31;57.70;96875.75;5054582;28;20028;-62
2022/04/08 01:03:38;;;;;;;1.13;0.30;;;;;;;24.34;58.05;96872.38;5054107;28;20121;-62
2022/04/08 01:06:03;;;;;;;1.08;0.30;;;;;;;24.34;57.79;96872.38;5054177;28;20025;-61
2022/04/08 01:08:29;;;;;;;0.98;0.30;;;;;;;24.36;57.68;96869.34;5053656;28;20025;-62
2022/04/08 01:10:55;;;;;;;0.90;0.28;;;;;;;24.36;58.10;96869.34;5054090;28;20529;-62
2022/04/08 01:13:21;;;;;;;2.05;0.45;;;;;;;24.36;57.47;96861.94;5053765;28;20494;-62
2022/04/08 01:15:46;;;;;;;1.70;0.40;;;;;;;24.37;57.29;96860.00;5053932;28;20096;-62
2022/04/08 01:18:12;;;;;;;2.28;0.38;;;;;;;24.39;57.33;96855.03;5053765;28;20042;-62
2022/04/08 01:20:37;;;;;;;0.68;0.35;;;;;;;24.39;57.36;96855.03;5053700;28;20479;-62
2022/04/08 01:23:04;;;;;;;1.88;0.30;;;;;;;24.40;57.11;96854.72;5054138;28;20027;-61
2022/04/08 01:25:29;;;;;;;2.97;0.40;;;;;;;24.44;57.01;96861.19;5053798;28;20036;-61
2022/04/08 01:27:55;;;;;;;2.83;0.60;;;;;;;24.42;57.11;96868.94;5053625;28;20021;-62
2022/04/08 01:30:20;;;;;;;2.47;0.40;;;;;;;24.42;57.72;96862.63;5060451;28;20040;-61
2022/04/08 01:32:46;;;;;;;1.52;0.50;;;;;;;24.44;57.42;96860.41;5057884;28;20100;-61
2022/04/08 01:35:11;;;;;;;1.50;0.45;;;;;;;24.45;57.68;96860.09;5053473;28;20025;-63
2022/04/08 01:37:37;;;;;;;1.92;0.32;;;;;;;24.43;57.70;96869.75;5053687;28;20096;-62
2022/04/08 01:40:02;;;;;;;0.93;0.30;;;;;;;24.44;57.47;96865.88;5052494;28;20025;-62
2022/04/08 01:42:28;;;;;;;2.08;0.43;;;;;;;24.48;57.68;96872.38;5053072;28;20549;-62
2022/04/08 01:44:54;;;;;;;0.95;0.20;;;;;;;24.45;56.91;96867.50;5052153;28;20029;-62
2022/04/08 01:47:20;;;;;;;1.30;0.63;;;;;;;24.46;57.72;96869.13;5053056;28;20057;-62
2022/04/08 01:49:46;;;;;;;1.92;0.40;;;;;;;24.47;57.67;96871.56;5053307;28;20107;-62
2022/04/08 01:52:11;;;;;;;1.50;0.28;;;;;;;24.47;57.46;96874.31;5053043;28;20068;-62
2022/04/08 01:54:36;;;;;;;1.17;0.38;;;;;;;24.48;57.45;96877.88;5052716;28;20042;-63
2022/04/08 01:57:02;;;;;;;1.63;0.43;;;;;;;24.50;57.17;96875.63;5053127;28;20017;-62
2022/04/08 01:59:27;;;;;;;1.70;0.28;;;;;;;24.48;57.34;96873.19;5052927;28;20029;-63
2022/04/08 02:01:52;;;;;;;1.73;0.50;;;;;;;24.49;58.25;96874.00;5057684;28;20092;-61
2022/04/08 02:04:18;;;;;;;1.33;0.30;;;;;;;24.50;57.84;96875.63;5060378;28;20079;-62
2022/04/08 02:06:43;;;;;;;1.50;0.30;;;;;;;24.51;57.36;96880.81;5052859;28;20031;-62
2022/04/08 02:09:09;;;;;;;2.22;0.30;;;;;;;24.50;57.82;96879.19;5051609;28;20021;-62
2022/04/08 02:11:36;;;;;;;0.82;0.43;;;;;;;24.52;57.57;96870.63;5052801;28;20464;-62
2022/04/08 02:14:02;;;;;;;2.10;0.40;;;;;;;24.55;57.65;96872.81;5051713;28;20051;-61
2022/04/08 02:16:28;;;;;;;1.33;0.25;;;;;;;24.55;57.63;96872.81;5067708;28;20036;-62
2022/04/08 02:18:53;;;;;;;1.42;0.47;;;;;;;24.50;57.36;96873.69;5053196;28;20025;-63
2022/04/08 02:21:19;;;;;;;1.77;0.40;;;;;;;24.53;57.32;96873.09;5052582;28;20084;-62
2022/04/08 02:23:52;;;;;;;0.80;0.25;;;;;;;24.53;57.38;96864.06;5051531;28;20035;-62
2022/04/08 02:26:18;;;;;;;2.03;0.30;;;;;;;24.53;57.22;96861.31;5051187;28;20031;-62
2022/04/08 02:28:44;;;;;;;0.55;0.20;;;;;;;24.54;58.14;96860.19;5052541;28;20025;-62
2022/04/08 02:31:10;;;;;;;2.08;0.43;;;;;;;24.55;57.86;96851.66;5051873;28;20053;-62
2022/04/08 02:33:35;;;;;;;1.73;0.50;;;;;;;24.53;58.02;96858.56;5055301;28;20601;-63
2022/04/08 02:36:00;;;;;;;0.82;0.30;;;;;;;24.55;57.48;96859.06;5050540;28;20020;-62
2022/04/08 02:38:26;;;;;;;1.65;0.40;;;;;;;24.53;56.74;96847.59;5051422;28;20017;-63
2022/04/08 02:40:51;;;;;;;2.70;0.65;;;;;;;24.57;57.89;96851.34;5050507;28;20025;-62
2022/04/08 02:43:17;;;;;;;1.27;0.45;;;;;;;24.54;57.42;96855.50;5050202;28;20039;-62
2022/04/08 02:45:42;;;;;;;1.50;0.65;;;;;;;24.57;56.66;96843.91;5051612;28;20064;-62
2022/04/08 02:48:07;;;;;;;1.58;0.40;;;;;;;24.60;57.60;96847.97;5051587;28;20223;-62
2022/04/08 02:50:33;;;;;;;2.13;0.30;;;;;;;24.56;56.78;96846.97;5051310;28;20031;-62
2022/04/08 02:52:58;;;;;;;1.40;0.40;;;;;;;24.56;57.73;96849.72;5051673;28;20169;-62
2022/04/08 02:55:23;;;;;;;1.38;0.30;;;;;;;24.55;57.90;96843.41;5051323;28;20480;-63
2022/04/08 02:57:50;;;;;;;1.55;0.40;;;;;;;24.57;57.81;96837.63;5051514;28;20063;-62
2022/04/08 03:00:18;;;;;;;2.30;0.40;;;;;;;24.60;57.04;96837.00;5059682;28;20021;-61
2022/04/08 03:02:45;;;;;;;2.92;0.40;;;;;;;24.56;57.20;96770.09;5055614;28;20467;-62
2022/04/08 03:05:11;;;;;;;0.75;0.32;;;;;;;24.58;57.44;96762.38;5052385;28;20112;-63
2022/04/08 03:07:36;;;;;;;2.00;0.60;;;;;;;24.58;56.79;96762.38;5054777;28;20159;-63
2022/04/08 03:10:06;;;;;;;1.55;0.50;;;;;;;24.61;56.88;96844.09;5057900;28;20056;-62
2022/04/08 03:12:32;;;;;;;0.73;0.30;;;;;;;24.57;56.89;96812.91;5053325;28;20163;-62
2022/04/08 03:14:59;;;;;;;0.98;0.50;;;;;;;24.59;57.65;96814.22;5054901;28;20404;-62
2022/04/08 03:17:24;;;;;;;2.47;0.32;;;;;;;24.62;56.38;96811.97;5054704;28;20028;-63
2022/04/08 03:19:50;;;;;;;1.38;0.40;;;;;;;24.60;57.10;96793.88;5054917;28;20371;-62
2022/04/08 03:22:19;;;;;;;1.00;0.50;;;;;;;24.60;57.16;96798.56;5054629;28;20039;-62
2022/04/08 03:24:45;;;;;;;2.30;0.32;;;;;;;24.58;56.94;96796.13;5055054;28;20039;-62
2022/04/08 03:27:10;;;;;;;0.65;0.32;;;;;;;24.61;56.98;96786.44;5054562;28;20464;-62
2022/04/08 03:29:35;;;;;;;2.65;0.50;;;;;;;24.61;57.61;96780.97;5007140;28;1351779;-62
2022/04/08 03:32:00;;;;;;;0.95;0.30;;;;;;;24.59;56.77;96780.47;5056561;28;20471;-62
2022/04/08 03:34:26;;;;;;;0.35;0.20;;;;;;;24.60;57.26;96777.41;5054246;28;20025;-62
2022/04/08 03:36:51;;;;;;;1.38;0.30;;;;;;;24.61;57.00;96775.47;5055726;28;20040;-62
2022/04/08 03:39:17;;;;;;;0.98;0.32;;;;;;;24.63;57.03;96770.47;5059196;28;20037;-62
2022/04/08 03:41:42;;;;;;;1.13;0.40;;;;;;;24.63;57.01;96765.00;5057719;28;20024;-62
2022/04/08 03:44:08;;;;;;;2.20;0.40;;;;;;;24.62;57.01;96763.38;5055630;28;20040;-62
2022/04/08 03:46:33;;;;;;;1.58;0.50;;;;;;;24.64;56.84;96765.78;5055533;28;20478;-62
2022/04/08 03:48:58;;;;;;;2.10;0.47;;;;;;;24.64;56.94;96763.88;5055603;28;20071;-61
2022/04/08 03:51:24;;;;;;;0.75;0.52;;;;;;;24.61;56.75;96761.75;5055344;28;20078;-62
2022/04/08 03:53:49;;;;;;;3.15;0.40;;;;;;;24.63;56.16;96762.25;5055591;28;20112;-61
2022/04/08 03:56:14;;;;;;;1.67;0.20;;;;;;;24.64;57.46;96761.13;5055350;28;20025;-62
2022/04/08 03:58:39;;;;;;;1.52;0.28;;;;;;;24.65;56.57;96760.00;5055322;28;20460;-61
2022/04/08 04:01:05;;;;;;;2.70;0.43;;;;;;;24.68;57.80;96759.38;5055430;28;20256;-62
2022/04/08 04:03:30;;;;;;;1.60;0.32;;;;;;;24.84;55.58;96749.66;5055208;28;20108;-61
2022/04/08 04:05:55;;;;;;;1.48;0.30;;;;;;;24.92;56.30;96744.53;5054007;28;20357;-61
2022/04/08 04:08:20;;;;;;;1.70;0.30;;;;;;;24.96;56.13;96751.84;5064880;28;20021;-62
2022/04/08 04:10:49;;;;;;;1.10;0.30;;;;;;;25.05;55.42;96750.00;5055173;28;20033;-62
2022/04/08 04:13:14;;;;;;;0.63;0.20;;;;;;;25.12;55.81;96750.38;5055266;28;20021;-63
2022/04/08 04:15:40;;;;;;;1.40;0.35;;;;;;;25.17;55.57;96741.19;5054667;28;20070;-61
2022/04/08 04:18:06;;;;;;;2.08;0.38;;;;;;;25.22;55.34;96737.50;5058046;28;20414;-60
2022/04/08 04:20:31;;;;;;;1.05;0.40;;;;;;;25.19;55.70;96736.19;5062671;28;20066;-62
2022/04/08 04:22:56;;;;;;;1.30;0.32;;;;;;;25.26;54.78;96733.81;5055245;28;20391;-62
2022/04/08 04:25:22;;;;;;;1.50;0.30;;;;;;;25.28;55.00;96730.75;5054850;28;20494;-62
2022/04/08 04:27:47;;;;;;;1.05;0.20;;;;;;;25.29;54.37;96727.69;5053777;28;20029;-62
2022/04/08 04:30:13;;;;;;;1.30;0.43;;;;;;;25.33;54.54;96727.84;5054567;28;20488;-62
2022/04/08 04:32:38;;;;;;;1.02;0.22;;;;;;;25.34;54.84;96730.28;5054756;28;20036;-62
2022/04/08 04:35:06;;;;;;;3.00;0.40;;;;;;;25.35;54.66;96726.41;5059601;28;20452;-63
2022/04/08 04:37:41;;;;;;;1.90;0.85;;;;;;;25.36;54.63;96728.06;5053274;28;20044;-62
2022/04/08 04:40:08;;;;;;;1.50;0.40;;;;;;;25.43;54.09;96719.34;5054632;28;20265;-62
2022/04/08 04:42:33;;;;;;;2.65;0.50;;;;;;;25.42;54.49;96725.97;5054418;28;20031;-62
2022/04/08 04:44:58;;;;;;;1.35;0.38;;;;;;;25.44;54.60;96724.53;5054664;28;20025;-62
2022/04/08 04:47:24;;;;;;;0.90;0.35;;;;;;;25.47;53.83;96723.91;5054276;28;20025;-63
2022/04/08 04:49:49;;;;;;;1.35;0.35;;;;;;;25.44;53.57;96726.47;5054503;28;20040;-62
2022/04/08 04:52:15;;;;;;;1.30;0.20;;;;;;;25.50;54.04;96728.75;5054608;28;20468;-63
2022/04/08 04:54:41;;;;;;;1.90;0.60;;;;;;;25.51;54.36;96726.81;5056066;28;20533;-61
2022/04/08 04:57:06;;;;;;;3.00;0.50;;;;;;;25.49;54.42;96721.63;5072580;28;20016;-61
2022/04/08 04:59:32;;;;;;;2.03;0.40;;;;;;;25.54;54.32;96726.19;5065422;28;20016;-62
2022/04/08 05:01:57;;;;;;;0.98;0.40;;;;;;;25.56;53.81;96720.38;5054268;28;20024;-62
2022/04/08 05:04:22;;;;;;;2.55;1.08;;;;;;;25.56;53.76;96721.19;5053953;28;20111;-62
2022/04/08 05:06:47;;;;;;;0.75;0.35;;;;;;;25.57;54.39;96722.00;5054218;28;20078;-62
2022/04/08 05:09:13;;;;;;;1.42;0.63;;;;;;;25.58;53.81;96721.69;5053843;28;20025;-62
2022/04/08 05:11:38;;;;;;;1.50;0.55;;;;;;;25.60;53.88;96708.44;5053993;28;20029;-63
2022/04/08 05:14:03;;;;;;;2.60;0.40;;;;;;;25.56;52.64;96712.13;5053976;28;20279;-62
2022/04/08 05:16:29;;;;;;;0.30;0.30;;;;;;;25.48;51.28;96702.72;5053752;28;20074;-62
2022/04/08 05:18:55;;;;;;;1.70;0.30;;;;;;;25.52;50.14;96705.63;5053855;28;20058;-62
2022/04/08 05:21:20;;;;;;;1.30;0.38;;;;;;;25.45;50.69;96712.41;5053682;28;20031;-62
2022/04/08 05:23:45;;;;;;;1.40;0.20;;;;;;;25.44;49.06;96705.28;5053892;28;20025;-62
2022/04/08 05:26:11;;;;;;;0.45;0.30;;;;;;;25.47;49.68;96712.91;5053699;28;20115;-63
2022/04/08 05:28:36;;;;;;;1.52;0.30;;;;;;;25.48;49.56;96709.00;5067738;28;20040;-61
2022/04/08 05:31:01;;;;;;;1.15;0.30;;;;;;;25.49;49.22;96702.38;5065033;28;20045;-62
2022/04/08 05:33:26;;;;;;;0.90;0.35;;;;;;;25.49;48.44;96701.56;5052091;28;20025;-62
2022/04/08 05:35:52;;;;;;;0.95;0.35;;;;;;;25.50;48.09;96695.75;5053666;28;20021;-63
2022/04/08 05:38:17;;;;;;;0.43;0.10;;;;;;;25.53;48.30;96699.84;5053318;28;20090;-62
2022/04/08 05:40:43;;;;;;;1.50;0.20;;;;;;;25.52;48.76;96700.13;5059876;28;20052;-62
2022/04/08 05:43:09;;;;;;;0.55;0.20;;;;;;;25.56;48.70;96696.44;5052152;28;20037;-62
2022/04/08 05:45:34;;;;;;;1.10;0.20;;;;;;;25.53;48.58;96710.84;5053336;28;20032;-62
2022/04/08 05:48:06;;;;;;;0.22;0.10;;;;;;;25.56;47.82;96712.94;5053371;28;20079;-63
2022/04/08 05:50:32;;;;;;;0.75;0.50;;;;;;;25.56;48.18;96710.19;5053048;28;20028;-62
2022/04/08 05:52:57;;;;;;;0.77;0.20;;;;;;;25.56;48.41;96710.19;5053334;28;20025;-62
2022/04/08 05:55:23;;;;;;;1.40;0.38;;;;;;;25.55;48.64;96718.75;5054455;28;20450;-60
2022/04/08 05:57:48;;;;;;;0.85;0.28;;;;;;;25.48;47.90;96716.44;5071364;28;20026;-61
2022/04/08 06:00:15;;;;;;;0.28;0.20;;;;;;;25.52;48.39;96719.38;5063002;28;20475;-62
2022/04/08 06:02:47;;;;;;;1.00;0.30;;;;;;;25.50;48.08;96717.75;5052928;28;20480;-62
2022/04/08 06:05:15;;;;;;;0.00;0.00;;;;;;;25.57;47.68;96711.00;5052975;28;20040;-63
2022/04/08 06:07:48;;;;;;;0.55;0.20;;;;;;;25.58;48.41;96718.94;5052837;28;20021;-62
2022/04/08 06:10:18;;;;;;;0.85;0.47;;;;;;;25.59;47.75;96719.75;5052869;28;20025;-62
2022/04/08 06:12:49;;;;;;;1.95;0.65;;;;;;;25.59;48.31;96726.06;5051986;28;20025;-61
2022/04/08 06:15:16;;;;;;;0.10;0.03;;;;;;;25.55;47.47;96727.00;5053021;28;20021;-62
2022/04/08 06:17:41;;;;;;;1.27;0.38;;;;;;;25.60;48.50;96737.88;5051563;28;20017;-62
2022/04/08 06:20:13;;;;;;;0.50;0.22;;;;;;;25.59;48.06;96741.75;5054942;28;20031;-61
2022/04/08 06:22:41;;;;;;;0.60;0.30;;;;;;;25.56;47.61;96742.38;5052690;28;20021;-63
2022/04/08 06:25:09;;;;;;;0.88;0.20;;;;;;;25.63;48.03;96748.22;5052656;28;20036;-62
2022/04/08 06:27:34;;;;;;;1.55;0.45;;;;;;;25.64;47.92;96755.34;5057876;28;20248;-63
2022/04/08 06:30:00;;;;;;;0.85;0.20;;;;;;;25.60;47.74;96760.66;5051161;28;20045;-61
2022/04/08 06:32:25;;;;;;;1.00;0.30;;;;;;;25.60;48.10;96757.09;5051005;28;20415;-62
2022/04/08 06:34:50;;;;;;;0.52;0.20;;;;;;;25.57;48.33;96757.75;5053048;28;20391;-62
2022/04/08 06:37:16;;;;;;;1.00;0.20;;;;;;;25.59;48.11;96758.25;5052453;28;20021;-62
2022/04/08 06:39:41;;;;;;;0.57;0.25;;;;;;;25.57;47.40;96755.81;5052460;28;20041;-61
2022/04/08 06:42:06;;;;;;;1.77;0.50;;;;;;;25.60;47.83;96755.16;5052445;28;20024;-62
2022/04/08 06:44:32;;;;;;;0.70;0.20;;;;;;;25.64;47.59;96763.59;5052309;28;20024;-62
2022/04/08 06:46:57;;;;;;;0.93;0.28;;;;;;;25.62;48.01;96752.09;5051169;28;20025;-62
2022/04/08 06:49:22;;;;;;;1.08;0.30;;;;;;;25.60;48.67;96762.59;5052531;28;20056;-62
2022/04/08 06:51:48;;;;;;;1.48;0.30;;;;;;;25.62;47.36;96760.34;5052382;28;20029;-61
2022/04/08 06:54:13;;;;;;;0.52;0.30;;;;;;;25.58;48.13;96756.63;5052252;28;20020;-62
2022/04/08 06:56:38;;;;;;;1.20;0.43;;;;;;;25.58;47.62;96756.63;5059575;28;20490;-60
2022/04/08 06:59:04;;;;;;;0.65;0.30;;;;;;;25.60;47.39;96759.84;5058680;28;20167;-62
2022/04/08 07:01:30;;;;;;;2.17;0.35;;;;;;;25.63;47.50;96760.03;5055761;28;20021;-62
2022/04/08 07:03:55;;;;;;;1.33;0.20;;;;;;;25.66;47.65;96758.59;5052286;28;20043;-62
2022/04/08 07:06:21;;;;;;;0.50;0.10;;;;;;;25.64;47.73;96764.41;5050764;28;20035;-62
2022/04/08 07:08:47;;;;;;;0.30;0.10;;;;;;;25.68;47.47;96757.16;5052283;28;20144;-62
2022/04/08 07:11:12;;;;;;;1.33;0.28;;;;;;;25.66;47.04;96758.59;5052105;28;20021;-62
2022/04/08 07:13:41;;;;;;;0.68;0.20;;;;;;;25.54;48.04;96764.69;5052053;28;20056;-62
2022/04/08 07:16:06;;;;;;;3.25;0.50;;;;;;;24.90;49.82;96770.41;5052157;28;20095;-62
2022/04/08 07:18:32;;;;;;;1.95;0.30;;;;;;;24.54;48.98;96764.13;5051959;28;20096;-62
2022/04/08 07:20:57;;;;;;;0.73;0.22;;;;;;;24.17;48.00;96768.69;5050892;28;20052;-62
2022/04/08 07:23:22;;;;;;;1.77;0.50;;;;;;;24.01;47.49;96776.44;5050622;28;20059;-63
2022/04/08 07:25:47;;;;;;;0.30;0.17;;;;;;;23.83;45.98;96771.06;5052027;28;20020;-62
2022/04/08 07:28:13;;;;;;;1.70;0.40;;;;;;;23.90;45.60;96768.75;5053715;28;20017;-61
2022/04/08 07:30:38;;;;;;;1.40;0.43;;;;;;;23.93;45.64;96773.59;5059624;28;20057;-62
2022/04/08 07:33:04;;;;;;;1.10;0.13;;;;;;;23.87;43.94;96769.34;5052087;28;20025;-63
2022/04/08 07:35:30;;;;;;;0.55;0.22;;;;;;;23.84;44.09;96768.00;5052141;28;20025;-62
2022/04/08 07:37:57;;;;;;;0.65;0.20;;;;;;;23.79;44.02;96772.78;5052374;28;20376;-62
2022/04/08 07:40:22;;;;;;;0.85;0.38;;;;;;;23.74;43.66;96764.66;5051503;28;20033;-62
2022/04/08 07:42:48;;;;;;;0.43;0.20;;;;;;;23.69;43.94;96774.63;5050654;28;20029;-62
2022/04/08 07:45:14;;;;;;;0.22;0.10;;;;;;;23.72;44.20;96778.69;5055293;28;20135;-62
2022/04/08 07:47:39;;;;;;;1.30;0.38;;;;;;;23.73;44.43;96788.53;5051828;28;20029;-62
2022/04/08 07:50:10;;;;;;;0.65;0.10;;;;;;;23.60;43.78;96781.91;5051924;28;20115;-62
2022/04/08 07:52:36;;;;;;;1.23;0.57;;;;;;;23.55;44.05;96792.94;5055115;28;20380;-62
2022/04/08 07:55:02;;;;;;;0.85;0.10;;;;;;;23.56;44.24;96791.84;5055884;28;20036;-62
2022/04/08 07:57:27;;;;;;;0.30;0.10;;;;;;;23.58;44.04;96789.63;5053969;28;20317;-62
2022/04/08 07:59:52;;;;;;;0.40;0.17;;;;;;;23.63;44.26;96796.94;5059120;28;20029;-62
2022/04/08 08:02:18;;;;;;;1.58;0.22;;;;;;;23.59;44.95;96799.47;5055201;28;20400;-63
2022/04/08 08:04:44;;;;;;;0.68;0.13;;;;;;;23.66;44.88;96802.63;5055256;28;20027;-62
2022/04/08 08:07:10;;;;;;;0.77;0.30;;;;;;;23.75;44.98;96802.75;5053848;28;20064;-63
2022/04/08 08:09:35;;;;;;;1.15;0.10;;;;;;;23.74;44.90;96803.06;5055121;28;20462;-62
2022/04/08 08:12:02;;;;;;;0.80;0.13;;;;;;;23.76;45.42;96814.53;5055220;28;20029;-62
2022/04/08 08:14:27;;;;;;;0.95;0.20;;;;;;;23.77;45.58;96816.16;5053375;28;20055;-62
2022/04/08 08:16:52;;;;;;;2.00;0.45;;;;;;;23.73;45.67;96815.13;5055411;28;20021;-63
2022/04/08 08:19:17;;;;;;;1.15;0.20;;;;;;;23.69;45.87;96817.69;5054953;28;20025;-62
2022/04/08 08:21:43;;;;;;;0.43;0.10;;;;;;;23.68;45.48;96822.34;5055005;28;20456;-62
2022/04/08 08:24:08;;;;;;;0.98;0.30;;;;;;;23.73;45.32;96817.88;5054929;28;20029;-63
2022/04/08 08:26:34;;;;;;;0.45;0.10;;;;;;;23.69;45.94;96823.16;5061599;28;20523;-60
2022/04/08 08:28:59;;;;;;;1.77;0.20;;;;;;;23.70;45.66;96833.81;5056915;28;20452;-62
2022/04/08 08:31:25;;;;;;;2.08;0.10;;;;;;;23.64;46.33;96829.53;5065133;28;20048;-62
2022/04/08 08:33:50;;;;;;;0.43;0.22;;;;;;;23.72;45.87;96830.78;5054765;28;20029;-63
2022/04/08 08:36:16;;;;;;;1.00;0.10;;;;;;;23.67;44.98;96837.16;5054663;28;20032;-62
2022/04/08 08:38:42;;;;;;;0.45;0.20;;;;;;;23.74;45.95;96842.25;5054869;28;20048;-63
2022/04/08 08:41:09;;;;;;;0.52;0.13;;;;;;;23.68;45.55;96835.22;5054712;28;20029;-63
2022/04/08 08:43:35;;;;;;;0.50;0.20;;;;;;;23.66;45.12;96835.53;5054478;28;20107;-62
2022/04/08 08:46:03;;;;;;;1.08;0.30;;;;;;;23.63;45.44;96846.28;5054662;28;20025;-62
2022/04/08 08:48:32;;;;;;;1.85;0.40;;;;;;;23.65;45.70;96836.63;5054166;28;20040;-62
2022/04/08 08:51:01;;;;;;;0.30;0.10;;;;;;;23.65;45.28;96860.50;5054514;28;20043;-63
2022/04/08 08:53:29;;;;;;;1.05;0.20;;;;;;;23.60;45.66;96844.16;5054275;28;20028;-62
2022/04/08 08:55:54;;;;;;;0.77;0.20;;;;;;;23.61;45.45;96856.75;5054515;28;20100;-63
2022/04/08 08:58:19;;;;;;;0.75;0.20;;;;;;;23.61;46.01;96854.81;5054122;28;20029;-62
2022/04/08 09:00:45;;;;;;;0.65;0.25;;;;;;;23.60;45.42;96853.19;5054438;28;20025;-62
2022/04/08 09:03:10;;;;;;;1.13;0.28;;;;;;;23.65;45.13;96865.97;5052912;28;20025;-62
2022/04/08 09:05:44;;;;;;;1.38;0.25;;;;;;;23.60;45.22;96864.16;5054059;28;20108;-63
2022/04/08 09:08:11;;;;;;;2.15;0.20;;;;;;;23.55;45.81;96869.69;5054135;28;20115;-63
2022/04/08 09:10:52;;;;;;;0.65;0.20;;;;;;;23.58;45.15;96860.91;5053893;28;20494;-62
2022/04/08 09:13:20;;;;;;;0.98;0.28;;;;;;;23.62;45.62;96856.44;5061948;28;20028;-63
2022/04/08 09:15:59;;;;;;;0.80;0.20;;;;;;;23.55;45.53;96875.19;5053994;28;20024;-62
2022/04/08 09:18:30;;;;;;;0.70;0.10;;;;;;;23.57;45.34;96870.22;5053715;28;20020;-62
2022/04/08 09:20:56;;;;;;;2.22;0.20;;;;;;;23.56;45.49;96876.00;5054157;28;20570;-64
2022/04/08 09:23:21;;;;;;;0.98;0.15;;;;;;;23.50;44.98;96869.75;5057870;28;20052;-63
2022/04/08 09:25:48;;;;;;;0.55;0.10;;;;;;;23.52;45.17;96881.25;5053807;28;20056;-63
2022/04/08 09:28:17;;;;;;;0.30;0.20;;;;;;;23.58;45.13;96880.09;5053257;28;20041;-63
2022/04/08 09:30:49;;;;;;;0.93;0.45;;;;;;;23.54;44.76;96881.78;5053282;28;20052;-63
2022/04/08 09:33:19;;;;;;;1.02;0.20;;;;;;;23.56;44.08;96876.81;5053780;28;20024;-64
2022/04/08 09:35:45;;;;;;;0.35;0.10;;;;;;;23.52;44.92;96881.25;5053656;28;20025;-63
2022/04/08 09:38:10;;;;;;;0.60;0.10;;;;;;;23.53;44.89;96885.63;5053474;28;20654;-64
2022/04/08 09:40:41;;;;;;;0.47;0.20;;;;;;;23.52;45.13;96873.03;5053510;28;20108;-63
2022/04/08 09:43:06;;;;;;;0.03;0.00;;;;;;;23.51;44.26;96887.00;5053885;28;20032;-63
2022/04/08 09:45:33;;;;;;;0.70;0.28;;;;;;;23.49;45.00;96887.31;5053343;28;20411;-63
2022/04/08 09:48:02;;;;;;;1.50;0.30;;;;;;;23.50;44.49;96888.94;5053483;28;20468;-63
2022/04/08 09:50:28;;;;;;;0.32;0.17;;;;;;;23.52;44.68;96892.22;5056685;28;20078;-63
2022/04/08 09:52:54;;;;;;;0.98;0.35;;;;;;;23.49;44.58;96890.06;5053496;28;20387;-64
2022/04/08 09:55:22;;;;;;;0.77;0.20;;;;;;;23.52;44.26;96894.97;5053288;28;20129;-63
2022/04/08 09:57:50;;;;;;;0.08;0.00;;;;;;;23.47;44.22;96896.97;5058723;28;20027;-62
2022/04/08 10:00:16;;;;;;;0.63;0.10;;;;;;;23.44;45.00;96903.84;5054407;28;20032;-63
2022/04/08 10:02:45;;;;;;;0.73;0.17;;;;;;;23.44;44.72;96898.38;5053191;28;20028;-63
2022/04/08 10:05:11;;;;;;;0.30;0.20;;;;;;;23.49;44.59;96917.47;5053080;28;20463;-63
2022/04/08 10:07:38;;;;;;;1.42;0.20;;;;;;;23.52;44.49;96916.09;5052936;28;20025;-63
2022/04/08 10:10:18;;;;;;;0.55;0.20;;;;;;;23.47;44.80;96919.69;5051860;28;20518;-63
2022/04/08 10:12:59;;;;;;;0.90;0.10;;;;;;;23.41;43.92;96931.84;5053209;28;20028;-63
2022/04/08 10:15:42;;;;;;;0.68;0.20;;;;;;;23.44;44.50;96944.97;5052508;28;20111;-63
2022/04/08 10:18:08;;;;;;;1.48;0.47;;;;;;;23.42;44.33;96949.94;5053197;28;20021;-62
2022/04/08 10:20:35;;;;;;;0.52;0.10;;;;;;;23.47;44.69;96946.28;5053849;28;20024;-63
2022/04/08 10:23:11;;;;;;;0.60;0.10;;;;;;;23.46;44.14;96956.44;5052996;28;20456;-63
2022/04/08 10:25:42;;;;;;;0.10;0.00;;;;;;;23.44;44.16;96964.16;5052701;28;20031;-63
2022/04/08 10:28:09;;;;;;;1.75;0.40;;;;;;;23.48;43.57;96965.16;5052750;28;20087;-63
2022/04/08 10:30:49;;;;;;;0.90;0.10;;;;;;;23.48;44.33;96969.84;5052408;28;20322;-64
2022/04/08 10:33:24;;;;;;;0.55;0.13;;;;;;;23.45;43.95;96965.78;5052897;28;20376;-63
2022/04/08 10:35:54;;;;;;;1.20;0.20;;;;;;;23.43;43.68;96984.44;5051288;28;20107;-64
2022/04/08 10:38:20;;;;;;;0.80;0.30;;;;;;;23.40;43.81;96979.56;5052415;28;20017;-64
2022/04/08 10:40:53;;;;;;;1.58;0.20;;;;;;;23.45;43.50;96995.09;5052989;28;20059;-63
2022/04/08 10:43:19;;;;;;;0.28;0.00;;;;;;;23.41;44.28;96995.69;5052434;28;20059;-64
2022/04/08 10:45:56;;;;;;;1.50;0.10;;;;;;;23.41;44.42;97001.19;5054550;28;20124;-61
2022/04/08 10:48:23;;;;;;;0.20;0.10;;;;;;;23.41;43.85;97003.09;5058357;28;20100;-62
2022/04/08 10:50:50;;;;;;;0.52;0.10;;;;;;;23.38;44.03;97015.47;5055741;28;20104;-63
2022/04/08 10:53:21;;;;;;;0.13;0.00;;;;;;;23.40;44.58;97028.88;5052352;28;20112;-63
2022/04/08 10:55:54;;;;;;;0.65;0.03;;;;;;;23.42;43.88;97032.94;5052415;28;20021;-64
2022/04/08 10:58:34;;;;;;;1.25;0.13;;;;;;;23.40;44.20;97039.84;5052195;28;20029;-63
2022/04/08 11:00:59;;;;;;;0.40;0.10;;;;;;;23.46;43.44;97040.59;5052303;28;20025;-63
2022/04/08 11:03:28;;;;;;;0.98;0.10;;;;;;;23.39;44.25;97049.19;5052118;28;20028;-63
2022/04/08 11:05:54;;;;;;;0.70;0.20;;;;;;;23.36;44.45;97050.59;5052332;28;20061;-63
2022/04/08 11:08:23;;;;;;;1.77;0.20;;;;;;;23.40;44.23;97067.25;5050734;28;20418;-63
2022/04/08 11:10:56;;;;;;;0.65;0.28;;;;;;;23.37;43.90;97078.81;5052599;28;20252;-63
2022/04/08 11:13:21;;;;;;;0.93;0.30;;;;;;;23.35;44.04;97065.41;5051954;28;20031;-63
2022/04/08 11:15:47;;;;;;;2.40;0.20;;;;;;;23.37;44.29;97065.09;5052198;28;20020;-63
2022/04/08 11:18:12;;;;;;;0.95;0.22;;;;;;;23.35;44.55;97075.53;5054470;28;20021;-62
2022/04/08 11:20:37;;;;;;;1.08;0.25;;;;;;;23.38;44.29;97085.91;5052223;28;20021;-63
2022/04/08 11:23:03;;;;;;;1.73;0.32;;;;;;;23.40;44.55;97097.41;5052222;28;20024;-63
2022/04/08 11:25:29;;;;;;;0.50;0.10;;;;;;;23.38;44.13;97103.16;5051995;28;20035;-63
2022/04/08 11:27:59;;;;;;;1.27;0.30;;;;;;;23.34;43.69;97093.06;5056190;28;20047;-64
2022/04/08 11:30:25;;;;;;;0.40;0.10;;;;;;;23.37;44.40;97106.22;5056459;28;20041;-64